Carter, Oklahoma
Current Conditions -  °F | °C
As of 4:55 AM on Monday 20 Oct 2014 (Local Time) from KELK Reporting Station
Clear Clear  
Wind Chill: 59°   Ceiling: Unl
Heat Index: 59°   Visibility: 7mi
Dew Point: 59°   Wind: 8mph
Humidity: 100%   Direction: 200°SSW
Pressure: 30.08"   Gusts: NA
Location:  35.22°N, 99.51°W
Report Text: KELK 200955Z AUTO 20007KT 7SM CLR 15/15 A3008 RMK AO2
Loading
Personal Weather Stations






























Interactive Weather Map
Tropical Storm Tracking
New forecast layout! Learn more

10-Day Weather Forecast

Advertisements
Track Severe Weather on mobile